NFFN/NAN METAR and TAF weather

Enter ICAO airport designator
Station Type Date Time Source
NFFN METAR 2022/08/16 19:00 UTC NOAA

NFFN 161900Z 00000KT 9999 FEW030 SCT300 21/20 Q1015 NOSIG


Station Type Date Time Source
NFFN Decoded METAR 2022/08/16 19:00 UTC NOAA

Nandi, Fiji (NFFN) 17-45S 177-27E 18M
Aug 16, 2022 - 03:00 PM EDT / 2022.08.16 1900 UTC
Wind: Calm:0
Visibility: greater than 7 mile(s):0
Sky conditions: partly cloudy
Temperature: 69 F (21 C)
Dew Point: 68 F (20 C)
Relative Humidity: 94%
Pressure (altimeter): 29.97 in. Hg (1015 hPa)
ob: NFFN 161900Z 00000KT 9999 FEW030 SCT300 21/20 Q1015 NOSIG
cycle: 19

Station Type Date Time Source
NFFN TAF 2022/08/16 18:06 UTC NOAA

TAF TAF NFFN 161702Z 1618/1718 09006KT 9999 FEW030

Example: see airport list